Time;durP1;ratioP1;P1;durP2;ratioP2;P2;SDS_P1;SDS_P2;PMS_P1;PMS_P2;Temp;Humidity;BMP_temperature;BMP_pressure;BME280_temperature;BME280_humidity;BME280_pressure;Samples;Min_cycle;Max_cycle;Signal;HPM_P1;HPM_P2
2022/08/21 00:00:17;;;;;;;5.63;5.10;;;21.10;99.90;;;;;;5055837;28;20483;-55
2022/08/21 00:02:47;;;;;;;8.93;4.53;;;21.10;99.90;;;;;;5056302;28;20448;-57
2022/08/21 00:05:14;;;;;;;5.10;3.97;;;21.10;99.90;;;;;;5056091;28;20467;-56
2022/08/21 00:07:41;;;;;;;6.60;5.40;;;21.10;99.90;;;;;;5055743;28;20421;-59
2022/08/21 00:10:10;;;;;;;4.30;3.80;;;21.10;99.90;;;;;;5055891;28;20483;-53
2022/08/21 00:12:37;;;;;;;7.60;5.03;;;21.20;99.90;;;;;;5056003;28;20467;-57
2022/08/21 00:15:12;;;;;;;6.00;4.80;;;21.20;99.90;;;;;;5055959;28;20492;-62
2022/08/21 00:17:39;;;;;;;6.50;3.33;;;21.10;99.90;;;;;;5055803;28;20614;-56
2022/08/21 00:20:08;;;;;;;5.10;4.30;;;21.10;99.90;;;;;;5055783;28;20436;-60
2022/08/21 00:22:36;;;;;;;4.77;3.93;;;21.10;99.90;;;;;;5055351;28;20432;-58
2022/08/21 00:25:04;;;;;;;4.57;4.07;;;21.10;99.90;;;;;;5055284;28;20448;-57
2022/08/21 00:27:32;;;;;;;4.83;4.00;;;21.10;99.90;;;;;;5055808;28;20421;-53
2022/08/21 00:29:59;;;;;;;5.93;3.83;;;21.10;99.90;;;;;;5055936;28;20436;-55
2022/08/21 00:32:28;;;;;;;6.00;3.93;;;21.10;99.90;;;;;;5055699;28;20524;-51
2022/08/21 00:34:58;;;;;;;6.50;4.83;;;21.00;99.90;;;;;;5054526;28;20539;-53
2022/08/21 00:37:25;;;;;;;5.87;4.47;;;21.00;99.90;;;;;;5056005;28;20488;-57
2022/08/21 00:39:53;;;;;;;5.97;4.00;;;21.00;99.90;;;;;;5055393;28;20463;-53
2022/08/21 00:42:20;;;;;;;9.80;4.07;;;21.00;99.90;;;;;;5054759;28;20475;-55
2022/08/21 00:44:51;;;;;;;7.60;4.57;;;21.00;99.90;;;;;;5054941;28;20444;-51
2022/08/21 00:47:18;;;;;;;5.90;4.67;;;20.90;99.90;;;;;;5055252;28;20436;-55
2022/08/21 00:49:46;;;;;;;4.40;4.00;;;21.00;99.90;;;;;;5054885;28;20448;-52
2022/08/21 00:52:19;;;;;;;4.87;4.10;;;20.90;99.90;;;;;;5055216;28;20444;-58
2022/08/21 00:54:47;;;;;;;5.00;4.37;;;20.90;99.90;;;;;;5058248;28;20532;-51
2022/08/21 00:57:18;;;;;;;5.13;3.80;;;20.90;99.90;;;;;;5058810;28;20903;-54
2022/08/21 00:59:50;;;;;;;5.40;3.90;;;20.90;99.90;;;;;;5058703;28;20436;-55
2022/08/21 01:02:18;;;;;;;4.63;4.07;;;20.90;99.90;;;;;;5058894;28;20449;-54
2022/08/21 01:04:45;;;;;;;5.67;4.27;;;20.80;99.90;;;;;;5058180;28;20475;-55
2022/08/21 01:07:14;;;;;;;5.70;4.30;;;20.80;99.90;;;;;;5058610;28;20428;-56
2022/08/21 01:09:41;;;;;;;6.10;4.57;;;20.80;99.90;;;;;;5058424;28;20508;-52
2022/08/21 01:12:09;;;;;;;5.90;4.80;;;20.70;99.90;;;;;;5058512;28;20468;-55
2022/08/21 01:14:37;;;;;;;5.80;5.20;;;20.70;99.90;;;;;;5058502;28;20490;-52
2022/08/21 01:17:06;;;;;;;6.43;4.53;;;20.70;99.90;;;;;;5058375;28;20471;-57
2022/08/21 01:19:34;;;;;;;6.07;4.83;;;20.70;99.90;;;;;;5058215;28;21024;-56
2022/08/21 01:22:02;;;;;;;6.77;5.07;;;20.70;99.90;;;;;;5058631;28;20456;-56
2022/08/21 01:24:33;;;;;;;5.20;4.30;;;20.70;99.90;;;;;;5058064;28;20440;-54
2022/08/21 01:27:03;;;;;;;6.10;4.90;;;20.60;99.90;;;;;;5057983;28;20500;-61
2022/08/21 01:29:38;;;;;;;5.07;4.37;;;20.60;99.90;;;;;;5058100;28;20432;-57
2022/08/21 01:32:08;;;;;;;6.23;4.70;;;20.60;99.90;;;;;;5058425;28;20483;-54
2022/08/21 01:34:38;;;;;;;8.20;4.90;;;20.60;99.90;;;;;;5057933;28;20474;-56
2022/08/21 01:37:13;;;;;;;6.50;5.20;;;20.60;99.90;;;;;;5057783;28;20463;-56
2022/08/21 01:39:41;;;;;;;7.80;4.73;;;20.50;99.90;;;;;;5057314;28;20464;-55
2022/08/21 01:42:11;;;;;;;5.67;4.00;;;20.50;99.90;;;;;;5057515;28;20488;-56
2022/08/21 01:44:39;;;;;;;8.17;5.57;;;20.50;99.90;;;;;;5057966;28;20421;-54
2022/08/21 01:47:09;;;;;;;6.53;4.87;;;20.50;99.90;;;;;;5057136;28;20469;-56
2022/08/21 01:49:37;;;;;;;8.27;4.50;;;20.50;99.90;;;;;;5057724;28;20436;-55
2022/08/21 01:52:07;;;;;;;5.40;4.60;;;20.50;99.90;;;;;;5057189;28;20476;-52
2022/08/21 01:54:35;;;;;;;5.00;4.37;;;20.50;99.90;;;;;;5057377;28;20495;-54
2022/08/21 01:57:02;;;;;;;4.90;3.90;;;20.40;99.90;;;;;;5057068;28;20491;-56
2022/08/21 01:59:30;;;;;;;5.03;3.60;;;20.40;99.90;;;;;;5057627;28;20431;-55
2022/08/21 02:01:57;;;;;;;4.10;3.70;;;20.30;99.90;;;;;;5056856;28;20476;-51
2022/08/21 02:04:24;;;;;;;6.40;4.43;;;20.30;99.90;;;;;;5056956;28;20517;-52
2022/08/21 02:06:51;;;;;;;4.50;3.43;;;20.30;99.90;;;;;;5056582;28;20503;-54
2022/08/21 02:09:23;;;;;;;4.80;3.83;;;20.30;99.90;;;;;;5057415;28;20479;-55
2022/08/21 02:11:52;;;;;;;7.60;3.60;;;20.20;99.90;;;;;;5057075;28;20490;-54
2022/08/21 02:14:19;;;;;;;4.53;3.27;;;20.20;99.90;;;;;;5057319;28;20478;-53
2022/08/21 02:16:49;;;;;;;7.37;3.57;;;20.20;99.90;;;;;;5057232;28;20511;-55
2022/08/21 02:19:17;;;;;;;5.60;3.53;;;20.10;99.90;;;;;;5057107;28;20512;-55
2022/08/21 02:21:45;;;;;;;3.70;2.73;;;20.10;99.90;;;;;;5056657;28;20496;-52
2022/08/21 02:24:17;;;;;;;3.77;2.90;;;20.10;99.90;;;;;;5057229;28;20464;-50
2022/08/21 02:26:43;;;;;;;8.33;3.10;;;20.10;99.90;;;;;;5056910;28;20468;-57
2022/08/21 02:29:12;;;;;;;3.93;3.50;;;20.10;99.90;;;;;;5056927;28;20437;-54
2022/08/21 02:31:38;;;;;;;10.50;3.83;;;20.10;99.90;;;;;;5056610;28;20511;-55
2022/08/21 02:34:05;;;;;;;4.60;3.60;;;20.10;99.90;;;;;;5057397;28;20482;-53
2022/08/21 02:36:32;;;;;;;5.20;3.63;;;20.10;99.90;;;;;;5056545;28;20468;-56
2022/08/21 02:38:59;;;;;;;5.00;2.97;;;20.10;99.90;;;;;;5056413;28;20478;-54
2022/08/21 02:41:26;;;;;;;5.40;3.43;;;20.00;99.90;;;;;;5056029;28;20448;-56
2022/08/21 02:43:53;;;;;;;4.33;3.50;;;20.00;99.90;;;;;;5056439;28;20439;-54
2022/08/21 02:46:21;;;;;;;4.63;2.93;;;20.00;99.90;;;;;;5056375;28;20527;-53
2022/08/21 02:48:49;;;;;;;3.30;3.00;;;19.90;99.90;;;;;;5056405;28;20409;-54
2022/08/21 02:51:19;;;;;;;4.60;3.50;;;19.90;99.90;;;;;;5056570;28;20459;-54
2022/08/21 02:53:51;;;;;;;3.10;2.80;;;19.90;99.90;;;;;;5056419;28;20487;-57
2022/08/21 02:56:20;;;;;;;8.43;3.30;;;19.80;99.90;;;;;;5056051;28;20440;-56
2022/08/21 02:58:50;;;;;;;6.10;3.03;;;19.80;99.90;;;;;;5055806;28;20425;-54
2022/08/21 03:01:22;;;;;;;3.17;2.87;;;19.80;99.90;;;;;;5055863;28;20988;-54
2022/08/21 03:03:54;;;;;;;7.37;3.67;;;19.80;99.90;;;;;;5055981;28;20487;-56
2022/08/21 03:06:24;;;;;;;4.03;3.30;;;19.70;99.90;;;;;;5055830;28;20440;-53
2022/08/21 03:08:51;;;;;;;8.70;2.90;;;19.70;99.90;;;;;;5056144;28;20459;-57
2022/08/21 03:11:20;;;;;;;5.33;2.90;;;19.60;99.90;;;;;;5055392;28;20479;-55
2022/08/21 03:13:49;;;;;;;3.90;2.80;;;19.60;99.90;;;;;;5055817;28;20522;-55
2022/08/21 03:16:15;;;;;;;3.43;2.83;;;19.60;99.90;;;;;;5055654;28;20451;-55
2022/08/21 03:18:44;;;;;;;2.60;2.23;;;19.60;99.90;;;;;;5055421;28;20483;-53
2022/08/21 03:21:14;;;;;;;5.53;2.97;;;19.60;99.90;;;;;;5056100;28;20925;-52
2022/08/21 03:23:41;;;;;;;10.90;3.00;;;19.60;99.90;;;;;;5055710;28;20500;-54
2022/08/21 03:26:10;;;;;;;4.27;2.97;;;19.50;99.90;;;;;;5055051;28;20447;-54
2022/08/21 03:28:39;;;;;;;4.50;2.30;;;19.50;99.90;;;;;;5055404;28;20467;-53
2022/08/21 03:31:06;;;;;;;4.30;2.23;;;19.50;99.90;;;;;;5055335;28;20444;-55
2022/08/21 03:33:33;;;;;;;3.77;2.87;;;19.50;99.90;;;;;;5055251;28;20436;-54
2022/08/21 03:36:04;;;;;;;3.30;3.00;;;19.40;99.90;;;;;;5055201;28;20444;-54
2022/08/21 03:38:40;;;;;;;4.60;2.70;;;19.40;99.90;;;;;;5055580;28;20449;-55
2022/08/21 03:41:07;;;;;;;4.80;2.90;;;19.40;99.90;;;;;;5055445;28;20396;-56
2022/08/21 03:43:34;;;;;;;4.53;2.67;;;19.40;99.90;;;;;;5055512;28;20424;-54
2022/08/21 03:46:03;;;;;;;4.80;2.70;;;19.40;99.90;;;;;;5054844;28;20450;-55
2022/08/21 03:48:34;;;;;;;6.00;3.50;;;19.40;99.90;;;;;;5056019;28;20448;-54
2022/08/21 03:51:03;;;;;;;3.97;2.80;;;19.40;99.90;;;;;;5055267;28;20424;-52
2022/08/21 03:53:30;;;;;;;2.97;2.70;;;19.40;99.90;;;;;;5055152;28;20460;-54
2022/08/21 03:55:57;;;;;;;3.33;2.80;;;19.30;99.90;;;;;;5055226;28;20488;-53
2022/08/21 03:58:26;;;;;;;5.63;2.90;;;19.30;99.90;;;;;;5055426;28;20452;-55
2022/08/21 04:00:57;;;;;;;3.40;3.03;;;19.30;99.90;;;;;;5054818;28;20547;-53
2022/08/21 04:03:25;;;;;;;5.17;3.10;;;19.30;99.90;;;;;;5054953;28;20472;-55
2022/08/21 04:05:52;;;;;;;4.20;3.03;;;19.30;99.90;;;;;;5055234;28;20460;-54
2022/08/21 04:08:21;;;;;;;11.37;3.47;;;19.30;99.90;;;;;;5055286;28;20493;-53
2022/08/21 04:10:51;;;;;;;4.00;3.40;;;19.20;99.90;;;;;;5055077;28;20452;-57
2022/08/21 04:13:18;;;;;;;5.47;3.13;;;19.20;99.90;;;;;;5055557;28;20432;-54
2022/08/21 04:15:47;;;;;;;4.67;3.00;;;19.20;99.90;;;;;;5054975;28;20501;-53
2022/08/21 04:18:14;;;;;;;7.47;3.53;;;19.10;99.90;;;;;;5054957;28;20555;-55
2022/08/21 04:20:42;;;;;;;6.40;3.30;;;19.10;99.90;;;;;;5055798;28;20519;-60
2022/08/21 04:23:13;;;;;;;6.07;3.00;;;19.10;99.90;;;;;;5055722;28;20499;-55
2022/08/21 04:25:46;;;;;;;8.80;3.30;;;19.10;99.90;;;;;;5055503;28;20437;-55
2022/08/21 04:28:12;;;;;;;5.77;4.10;;;19.10;99.90;;;;;;5056108;28;20472;-55
2022/08/21 04:30:39;;;;;;;3.40;2.80;;;19.10;99.90;;;;;;5058948;28;20436;-55
2022/08/21 04:33:06;;;;;;;8.20;2.80;;;19.10;99.90;;;;;;5059027;28;20475;-60
2022/08/21 04:35:33;;;;;;;4.00;3.00;;;19.10;99.90;;;;;;5058875;28;20496;-64
2022/08/21 04:38:02;;;;;;;4.90;2.73;;;19.10;99.90;;;;;;5058797;28;20524;-58
2022/08/21 04:40:33;;;;;;;8.53;3.33;;;19.10;99.90;;;;;;5058500;28;20455;-54
2022/08/21 04:43:07;;;;;;;6.23;3.20;;;19.10;99.90;;;;;;5058235;28;20492;-53
2022/08/21 04:45:37;;;;;;;5.90;2.87;;;19.20;99.90;;;;;;5058529;28;20424;-52
2022/08/21 04:48:06;;;;;;;4.40;2.87;;;19.20;99.90;;;;;;5058481;28;20448;-53
2022/08/21 04:50:38;;;;;;;9.30;2.70;;;19.20;99.90;;;;;;5058707;28;20492;-52
2022/08/21 04:53:08;;;;;;;2.80;2.33;;;19.20;99.90;;;;;;5058470;28;20467;-54
2022/08/21 04:55:39;;;;;;;4.33;2.30;;;19.20;99.90;;;;;;5057971;28;20490;-57
2022/08/21 04:58:09;;;;;;;4.80;2.30;;;19.20;99.90;;;;;;5058761;28;20472;-56
2022/08/21 05:00:36;;;;;;;5.43;2.30;;;19.30;99.90;;;;;;5058927;28;20475;-55
2022/08/21 05:03:08;;;;;;;5.73;2.90;;;19.30;99.90;;;;;;5058930;28;20483;-50
2022/08/21 05:05:35;;;;;;;3.73;2.70;;;19.30;99.90;;;;;;5058596;28;20520;-55
2022/08/21 05:08:04;;;;;;;4.30;2.07;;;19.30;99.90;;;;;;5058564;28;20512;-60
2022/08/21 05:10:32;;;;;;;6.40;3.20;;;19.30;99.90;;;;;;5058704;28;20463;-54
2022/08/21 05:13:02;;;;;;;5.47;2.60;;;19.40;99.90;;;;;;5058421;28;20468;-51
2022/08/21 05:15:30;;;;;;;11.10;2.90;;;19.40;99.90;;;;;;5058481;28;20460;-54
2022/08/21 05:18:03;;;;;;;3.60;3.00;;;19.40;99.90;;;;;;5058200;28;20468;-55
2022/08/21 05:20:30;;;;;;;10.73;2.90;;;19.40;99.90;;;;;;5058058;28;20520;-55
2022/08/21 05:22:57;;;;;;;4.23;2.30;;;19.40;99.90;;;;;;5058092;28;20957;-55
2022/08/21 05:25:24;;;;;;;3.80;2.33;;;19.50;99.90;;;;;;5057563;28;20510;-57
2022/08/21 05:27:54;;;;;;;3.47;1.77;;;19.50;99.90;;;;;;5057856;28;20464;-55
2022/08/21 05:30:21;;;;;;;3.13;2.60;;;19.40;99.90;;;;;;5057633;28;20476;-55
2022/08/21 05:32:51;;;;;;;2.50;2.13;;;19.50;99.90;;;;;;5057547;28;20510;-54
2022/08/21 05:35:22;;;;;;;4.77;2.10;;;19.40;99.90;;;;;;5057065;28;20476;-61
2022/08/21 05:37:49;;;;;;;6.70;1.80;;;19.50;99.90;;;;;;5057472;28;20496;-54
2022/08/21 05:40:15;;;;;;;7.67;2.80;;;19.50;99.90;;;;;;5056029;28;20500;-56
2022/08/21 05:42:42;;;;;;;2.80;2.30;;;19.50;99.90;;;;;;5057323;28;20476;-54
2022/08/21 05:45:09;;;;;;;7.63;3.20;;;19.50;99.90;;;;;;5057383;28;20440;-53
2022/08/21 05:47:37;;;;;;;2.20;1.73;;;19.50;99.90;;;;;;5057235;28;20512;-56
2022/08/21 05:50:06;;;;;;;2.43;2.20;;;19.60;99.90;;;;;;5057574;28;20468;-55
2022/08/21 05:52:36;;;;;;;2.17;1.97;;;19.60;99.90;;;;;;5057453;28;20450;-56
2022/08/21 05:55:03;;;;;;;4.47;2.13;;;19.60;99.90;;;;;;5057447;28;20520;-56
2022/08/21 05:57:29;;;;;;;4.50;2.33;;;19.50;99.90;;;;;;5057255;28;20507;-54
2022/08/21 05:59:56;;;;;;;4.80;2.03;;;19.60;99.90;;;;;;5056140;28;20459;-55
2022/08/21 06:02:23;;;;;;;3.70;2.30;;;19.60;99.90;;;;;;5057317;28;20471;-54
2022/08/21 06:04:50;;;;;;;9.40;3.10;;;19.60;99.90;;;;;;5057192;28;20472;-54
2022/08/21 06:07:18;;;;;;;5.03;2.30;;;19.60;99.90;;;;;;5056903;28;20513;-51
2022/08/21 06:09:45;;;;;;;13.10;2.83;;;19.70;99.90;;;;;;5057090;28;20464;-56
2022/08/21 06:12:20;;;;;;;4.30;2.80;;;19.70;99.90;;;;;;5056916;28;20500;-55
2022/08/21 06:14:47;;;;;;;10.93;3.87;;;19.80;99.90;;;;;;5056685;28;20462;-53
2022/08/21 06:17:15;;;;;;;2.53;1.90;;;19.80;99.90;;;;;;5056453;28;20448;-55
2022/08/21 06:19:42;;;;;;;8.53;2.47;;;19.80;99.90;;;;;;5056958;28;20589;-54
2022/08/21 06:22:09;;;;;;;5.83;2.30;;;19.90;99.90;;;;;;5056973;28;20500;-57
2022/08/21 06:24:37;;;;;;;5.33;2.90;;;19.90;99.90;;;;;;5056613;28;20488;-55
2022/08/21 06:27:07;;;;;;;5.03;3.40;;;20.00;99.90;;;;;;5056737;28;20440;-53
2022/08/21 06:29:34;;;;;;;6.30;2.67;;;20.00;99.90;;;;;;5057000;28;20443;-50
2022/08/21 06:32:02;;;;;;;3.47;2.37;;;20.00;99.90;;;;;;5056658;28;20444;-54
2022/08/21 06:34:29;;;;;;;5.40;2.40;;;20.10;99.90;;;;;;5056672;28;20536;-54
2022/08/21 06:36:59;;;;;;;7.73;2.37;;;20.10;99.90;;;;;;5056300;28;20444;-53
2022/08/21 06:39:26;;;;;;;3.70;2.33;;;20.10;99.90;;;;;;5056631;28;20470;-51
2022/08/21 06:41:57;;;;;;;5.17;2.30;;;20.10;99.90;;;;;;5056218;28;20472;-54
2022/08/21 06:44:24;;;;;;;2.43;1.90;;;20.20;99.90;;;;;;5055924;28;20532;-53
2022/08/21 06:46:51;;;;;;;5.67;2.40;;;20.10;99.90;;;;;;5056164;28;20432;-53
2022/08/21 06:49:21;;;;;;;4.83;2.80;;;20.20;99.90;;;;;;5056356;28;20463;-56
2022/08/21 06:51:51;;;;;;;4.93;2.00;;;20.30;99.90;;;;;;5055719;28;20436;-55
2022/08/21 06:54:18;;;;;;;6.70;2.73;;;20.40;99.90;;;;;;5056373;28;20527;-57
2022/08/21 06:56:48;;;;;;;2.60;2.40;;;20.50;99.90;;;;;;5056088;28;20539;-52
2022/08/21 06:59:16;;;;;;;7.80;2.67;;;20.60;99.90;;;;;;5055974;28;20484;-52
2022/08/21 07:01:44;;;;;;;9.10;2.40;;;20.70;99.90;;;;;;5056315;28;20463;-50
2022/08/21 07:04:14;;;;;;;10.23;2.73;;;20.70;99.90;;;;;;5055938;28;21001;-51
2022/08/21 07:06:41;;;;;;;6.70;2.23;;;20.80;99.90;;;;;;5056068;28;20443;-53
2022/08/21 07:09:09;;;;;;;3.47;2.13;;;20.80;99.90;;;;;;5055758;28;20472;-55
2022/08/21 07:11:37;;;;;;;3.13;2.07;;;20.80;99.90;;;;;;5055714;28;20452;-56
2022/08/21 07:14:04;;;;;;;7.83;4.03;;;20.90;99.90;;;;;;5056176;28;20464;-55
2022/08/21 07:16:33;;;;;;;2.70;1.90;;;20.90;99.90;;;;;;5055545;28;20539;-56
2022/08/21 07:18:59;;;;;;;5.20;2.30;;;20.90;99.90;;;;;;5055732;28;20529;-52
2022/08/21 07:21:27;;;;;;;3.33;1.93;;;21.00;99.90;;;;;;5055701;28;20459;-55
2022/08/21 07:23:54;;;;;;;4.70;2.00;;;21.10;99.90;;;;;;5055627;28;20460;-53
2022/08/21 07:26:25;;;;;;;4.17;2.03;;;21.20;99.90;;;;;;5055778;28;20450;-53
2022/08/21 07:28:53;;;;;;;4.30;2.60;;;21.30;99.90;;;;;;5055454;28;20460;-54
2022/08/21 07:31:22;;;;;;;3.00;2.23;;;21.40;99.90;;;;;;5056022;28;20484;-51
2022/08/21 07:33:50;;;;;;;4.60;2.30;;;21.40;99.90;;;;;;5055710;28;20460;-54
2022/08/21 07:36:18;;;;;;;8.30;2.23;;;21.60;99.90;;;;;;5055528;28;20465;-56
2022/08/21 07:38:45;;;;;;;2.10;1.90;;;21.70;99.90;;;;;;5055859;28;20464;-52
2022/08/21 07:41:19;;;;;;;3.63;2.10;;;21.90;99.90;;;;;;5055534;28;20452;-54
2022/08/21 07:43:49;;;;;;;3.87;2.10;;;21.90;99.90;;;;;;5054941;28;20455;-55
2022/08/21 07:46:16;;;;;;;9.53;2.40;;;22.10;99.90;;;;;;5055386;28;20440;-53
2022/08/21 07:48:43;;;;;;;4.33;2.43;;;22.20;99.90;;;;;;5055334;28;20504;-54
2022/08/21 07:51:14;;;;;;;4.20;2.73;;;22.30;99.90;;;;;;5055397;28;20425;-56
2022/08/21 07:53:42;;;;;;;5.27;2.47;;;22.40;99.90;;;;;;5055678;28;20460;-58
2022/08/21 07:56:10;;;;;;;3.53;2.30;;;22.60;99.90;;;;;;5055014;28;20452;-54
2022/08/21 07:58:40;;;;;;;2.90;2.10;;;22.70;99.90;;;;;;5055551;28;20449;-54
2022/08/21 08:01:07;;;;;;;7.17;2.20;;;23.00;99.90;;;;;;5055361;28;20495;-52
2022/08/21 08:03:36;;;;;;;4.20;2.00;;;23.40;99.90;;;;;;5056839;28;20448;-54
2022/08/21 08:06:04;;;;;;;2.70;1.93;;;23.80;99.90;;;;;;5059443;28;20459;-53
2022/08/21 08:08:33;;;;;;;3.80;1.70;;;24.20;99.90;;;;;;5059496;28;20447;-53
2022/08/21 08:11:00;;;;;;;2.60;1.70;;;24.60;99.90;;;;;;5058931;28;20439;-52
2022/08/21 08:13:27;;;;;;;2.50;1.60;;;24.90;99.90;;;;;;5059328;28;20524;-51
2022/08/21 08:15:54;;;;;;;2.13;1.40;;;25.30;99.90;;;;;;5058713;28;20506;-56
2022/08/21 08:18:21;;;;;;;3.33;1.70;;;25.40;99.90;;;;;;5059262;28;20448;-50
2022/08/21 08:20:48;;;;;;;4.30;1.47;;;25.50;99.90;;;;;;5059495;28;20965;-54
2022/08/21 08:23:15;;;;;;;7.57;2.10;;;25.70;99.90;;;;;;5059357;28;20488;-55
2022/08/21 08:25:43;;;;;;;3.80;1.90;;;26.10;99.90;;;;;;5058753;28;20504;-52
2022/08/21 08:28:10;;;;;;;3.10;1.80;;;26.60;99.90;;;;;;5059142;28;20539;-53
2022/08/21 08:30:37;;;;;;;3.00;1.33;;;27.20;98.10;;;;;;5058849;28;20452;-53
2022/08/21 08:33:04;;;;;;;2.20;1.70;;;27.70;96.00;;;;;;5059751;28;20473;-54
2022/08/21 08:35:31;;;;;;;1.77;1.53;;;28.10;92.70;;;;;;5059186;28;20518;-53
2022/08/21 08:37:58;;;;;;;2.90;1.60;;;28.50;89.70;;;;;;5059755;28;20432;-55
2022/08/21 08:40:35;;;;;;;3.33;2.13;;;28.60;85.60;;;;;;5059815;28;20475;-53
2022/08/21 08:43:05;;;;;;;3.47;1.50;;;28.40;85.20;;;;;;5060292;28;20443;-55
2022/08/21 08:45:40;;;;;;;3.63;1.87;;;28.10;86.90;;;;;;5060021;28;20451;-52
2022/08/21 08:48:10;;;;;;;2.63;1.33;;;27.80;88.30;;;;;;5059648;28;20419;-58
2022/08/21 08:50:44;;;;;;;3.10;1.73;;;27.50;89.40;;;;;;5060337;28;20421;-57
2022/08/21 08:53:16;;;;;;;8.83;7.00;;;27.20;90.20;;;;;;5060452;28;20416;-51
2022/08/21 08:55:45;;;;;;;4.30;2.73;;;26.90;91.20;;;;;;5059470;28;20500;-56
2022/08/21 08:58:21;;;;;;;2.53;1.70;;;26.40;90.30;;;;;;5059035;28;20944;-52
2022/08/21 09:00:51;;;;;;;1.80;1.50;;;26.00;90.70;;;;;;5058978;28;20505;-55
2022/08/21 09:03:18;;;;;;;3.33;2.00;;;25.60;91.30;;;;;;5058973;28;20509;-59
2022/08/21 09:05:48;;;;;;;2.07;1.60;;;25.30;93.00;;;;;;5058740;28;20434;-56
2022/08/21 09:08:35;;;;;;;2.10;1.77;;;25.10;94.00;;;;;;5058658;28;20449;-59
2022/08/21 09:11:05;;;;;;;2.93;1.57;;;25.00;95.30;;;;;;5055210;28;20523;-54
2022/08/21 09:13:46;;;;;;;3.00;1.30;;;24.90;96.10;;;;;;5058489;28;20432;-51
2022/08/21 09:16:25;;;;;;;3.73;2.23;;;24.90;96.10;;;;;;5058417;28;20487;-55
2022/08/21 09:18:59;;;;;;;5.10;2.07;;;24.80;95.40;;;;;;5058476;28;20448;-54
2022/08/21 09:21:32;;;;;;;2.43;1.20;;;24.70;97.10;;;;;;5057924;28;20424;-55
2022/08/21 09:24:02;;;;;;;2.60;1.97;;;24.60;96.10;;;;;;5058455;28;20479;-54
2022/08/21 09:26:40;;;;;;;1.73;1.53;;;24.50;97.40;;;;;;5058020;28;20427;-53
2022/08/21 09:29:12;;;;;;;5.23;1.50;;;24.50;97.90;;;;;;5058512;28;20417;-50
2022/08/21 09:31:39;;;;;;;3.77;2.13;;;24.50;98.20;;;;;;5058175;28;20497;-53
2022/08/21 09:34:08;;;;;;;4.50;1.70;;;24.40;99.40;;;;;;5057807;28;20447;-54
2022/08/21 09:36:40;;;;;;;4.57;2.20;;;24.40;99.90;;;;;;5057987;28;20464;-55
2022/08/21 09:39:09;;;;;;;4.53;1.60;;;24.50;99.70;;;;;;5058476;28;20448;-55
2022/08/21 09:41:37;;;;;;;2.10;1.67;;;24.40;99.40;;;;;;5057854;28;20452;-52
2022/08/21 09:44:06;;;;;;;5.77;1.63;;;24.30;99.90;;;;;;5057893;28;20476;-56
2022/08/21 09:46:35;;;;;;;5.80;2.00;;;24.20;99.90;;;;;;5057798;28;20440;-55
2022/08/21 09:49:04;;;;;;;3.83;1.80;;;24.10;99.90;;;;;;5058035;28;20463;-52
2022/08/21 09:51:34;;;;;;;3.60;1.90;;;24.00;99.90;;;;;;5058366;28;20424;-55
2022/08/21 09:54:18;;;;;;;3.53;1.70;;;24.10;99.90;;;;;;5057820;28;20920;-55
2022/08/21 09:59:43;;;;;;;2.77;2.37;;;24.30;99.90;;;;;;5058066;28;20456;-52
2022/08/21 10:02:25;;;;;;;6.20;2.30;;;24.50;99.90;;;;;;5057787;28;20476;-54
2022/08/21 10:04:54;;;;;;;4.00;2.30;;;24.70;99.90;;;;;;5057559;28;20812;-52
2022/08/21 10:07:23;;;;;;;5.40;3.33;;;25.00;99.90;;;;;;5057272;28;20411;-56
2022/08/21 10:10:00;;;;;;;4.17;3.03;;;25.30;99.90;;;;;;5057243;28;20803;-53
2022/08/21 10:12:33;;;;;;;3.43;1.93;;;25.50;99.10;;;;;;5057270;28;20451;-53
2022/08/21 10:15:08;;;;;;;4.03;2.60;;;25.70;97.40;;;;;;5056998;28;20483;-55
2022/08/21 10:17:45;;;;;;;4.77;1.83;;;25.70;96.70;;;;;;5056889;28;20483;-56
2022/08/21 10:20:20;;;;;;;3.83;1.53;;;25.60;96.70;;;;;;5057017;28;20464;-56
2022/08/21 10:22:55;;;;;;;5.40;1.83;;;25.60;97.20;;;;;;5057284;28;20456;-54
2022/08/21 10:25:32;;;;;;;4.13;1.63;;;25.60;95.70;;;;;;5056502;28;20471;-55
2022/08/21 10:28:06;;;;;;;3.70;2.20;;;25.50;95.90;;;;;;5056867;28;20432;-55
2022/08/21 10:30:42;;;;;;;3.90;2.00;;;25.50;96.10;;;;;;5056424;28;20460;-55
2022/08/21 10:33:29;;;;;;;3.60;2.30;;;25.60;96.40;;;;;;5056922;28;20472;-53
2022/08/21 10:36:07;;;;;;;3.73;1.73;;;25.80;94.40;;;;;;5056816;28;20532;-56
2022/08/21 10:38:58;;;;;;;3.60;1.83;;;26.00;93.80;;;;;;5057106;28;20460;-54
2022/08/21 10:41:38;;;;;;;2.87;1.67;;;26.20;92.30;;;;;;5053437;28;20472;-57
2022/08/21 10:44:23;;;;;;;1.77;1.53;;;26.30;91.70;;;;;;5056786;28;20428;-55
2022/08/21 10:47:01;;;;;;;2.90;1.30;;;26.50;89.20;;;;;;5056475;28;20498;-56
2022/08/21 10:49:39;;;;;;;4.03;2.13;;;26.60;90.60;;;;;;5056620;28;20446;-55
2022/08/21 10:52:33;;;;;;;1.87;1.50;;;26.60;90.90;;;;;;5056560;28;20448;-54
2022/08/21 10:55:07;;;;;;;3.53;1.87;;;26.70;90.60;;;;;;5055450;28;20472;-57
2022/08/21 10:57:42;;;;;;;2.13;1.67;;;26.60;91.10;;;;;;5056475;28;20482;-53
2022/08/21 11:00:12;;;;;;;3.23;1.63;;;26.50;88.40;;;;;;5056233;28;20503;-56
2022/08/21 11:02:45;;;;;;;2.50;1.40;;;26.30;88.40;;;;;;5056431;28;20456;-54
2022/08/21 11:05:19;;;;;;;10.00;7.60;;;26.20;86.10;;;;;;5056642;28;20527;-56
2022/08/21 11:07:51;;;;;;;2.60;1.70;;;26.10;88.70;;;;;;5055844;28;20436;-53
2022/08/21 11:10:25;;;;;;;2.33;1.50;;;26.30;89.70;;;;;;5056315;28;20471;-56
2022/08/21 11:12:56;;;;;;;2.43;1.73;;;26.60;87.60;;;;;;5056116;28;20423;-54
2022/08/21 11:15:35;;;;;;;2.60;1.50;;;26.80;83.10;;;;;;5056296;28;20475;-52
2022/08/21 11:18:16;;;;;;;2.60;1.57;;;27.00;78.30;;;;;;5055827;28;20476;-55
2022/08/21 11:20:51;;;;;;;1.80;1.50;;;27.00;79.50;;;;;;5055970;28;20529;-55
2022/08/21 11:23:24;;;;;;;2.80;1.60;;;27.10;79.90;;;;;;5055884;28;20463;-58
2022/08/21 11:25:56;;;;;;;3.87;1.70;;;27.40;80.90;;;;;;5055824;28;20464;-55
2022/08/21 11:28:34;;;;;;;6.50;1.87;;;27.60;78.60;;;;;;5056031;28;20500;-53
2022/08/21 11:31:12;;;;;;;2.67;2.13;;;27.80;79.80;;;;;;5055981;28;20527;-54
2022/08/21 11:33:56;;;;;;;3.10;1.60;;;28.00;78.90;;;;;;5055594;28;20428;-55
2022/08/21 11:36:34;;;;;;;4.30;4.00;;;28.00;75.20;;;;;;5055180;28;20511;-53
2022/08/21 11:39:10;;;;;;;4.30;1.87;;;28.10;75.00;;;;;;5054938;28;20496;-59
2022/08/21 11:41:41;;;;;;;4.20;1.50;;;28.20;71.70;;;;;;5055714;28;20467;-54
2022/08/21 11:44:15;;;;;;;2.13;1.47;;;28.30;70.50;;;;;;5055576;28;20436;-55
2022/08/21 11:46:49;;;;;;;5.80;1.97;;;28.40;68.20;;;;;;5055108;28;20470;-54
2022/08/21 11:49:37;;;;;;;2.60;1.67;;;28.30;70.80;;;;;;5056293;28;20467;-54
2022/08/21 11:52:14;;;;;;;3.50;1.90;;;28.30;68.20;;;;;;5055319;28;20468;-56
2022/08/21 11:54:47;;;;;;;1.67;1.33;;;28.30;69.70;;;;;;5055836;28;20425;-54
2022/08/21 11:57:20;;;;;;;2.00;1.50;;;28.30;65.70;;;;;;5055729;28;20472;-55
2022/08/21 11:59:54;;;;;;;3.63;1.70;;;28.20;65.30;;;;;;5055786;28;20427;-54
2022/08/21 12:02:24;;;;;;;2.93;1.73;;;28.00;66.40;;;;;;5055990;28;20433;-54
2022/08/21 12:04:55;;;;;;;2.03;1.57;;;27.60;66.90;;;;;;5055503;28;20436;-51
2022/08/21 12:07:35;;;;;;;1.50;1.30;;;27.40;66.20;;;;;;5055654;28;20450;-55
2022/08/21 12:10:07;;;;;;;1.90;1.43;;;27.00;64.20;;;;;;5055494;28;20885;-55
2022/08/21 12:12:36;;;;;;;2.77;1.63;;;26.60;66.60;;;;;;5055519;28;20433;-54
2022/08/21 12:15:27;;;;;;;2.30;1.40;;;26.40;67.60;;;;;;5055822;28;20435;-58
2022/08/21 12:17:59;;;;;;;2.33;2.13;;;26.30;68.20;;;;;;5055650;28;20480;-53
2022/08/21 12:20:41;;;;;;;1.93;1.50;;;26.50;68.50;;;;;;5055359;28;20425;-51
2022/08/21 12:23:26;;;;;;;2.30;1.53;;;26.60;67.70;;;;;;5055064;28;20420;-54
2022/08/21 12:26:17;;;;;;;4.23;1.60;;;26.50;67.50;;;;;;5055333;28;20487;-54
2022/08/21 12:28:44;;;;;;;2.17;1.23;;;26.40;69.50;;;;;;5055509;28;20444;-55
2022/08/21 12:31:26;;;;;;;2.20;1.33;;;26.30;68.10;;;;;;5055449;28;20540;-50
2022/08/21 12:33:59;;;;;;;2.60;1.33;;;26.40;68.90;;;;;;5055704;28;20464;-52
2022/08/21 12:36:41;;;;;;;3.30;2.80;;;26.50;69.50;;;;;;5054661;28;20512;-55
2022/08/21 12:39:24;;;;;;;2.50;1.20;;;26.60;70.20;;;;;;5056187;28;20413;-56
2022/08/21 12:41:56;;;;;;;1.80;1.10;;;26.60;65.60;;;;;;5054907;28;20467;-53
2022/08/21 12:44:31;;;;;;;1.43;1.13;;;26.60;65.20;;;;;;5055136;28;20452;-55
2022/08/21 12:47:02;;;;;;;1.43;1.33;;;26.60;64.50;;;;;;5055331;28;20467;-53
2022/08/21 12:49:35;;;;;;;7.50;2.60;;;26.60;65.90;;;;;;5056619;28;20478;-55
2022/08/21 12:52:09;;;;;;;4.33;1.70;;;26.70;62.70;;;;;;5058450;28;20479;-55
2022/08/21 12:54:42;;;;;;;2.00;1.20;;;26.80;64.20;;;;;;5058589;28;20429;-56
2022/08/21 12:57:18;;;;;;;1.70;1.30;;;26.90;63.20;;;;;;5058562;28;20487;-56
2022/08/21 12:59:45;;;;;;;1.87;1.30;;;26.90;63.10;;;;;;5058563;28;20420;-55
2022/08/21 13:02:19;;;;;;;2.73;1.30;;;27.00;62.90;;;;;;5058734;28;20474;-58
2022/08/21 13:04:48;;;;;;;2.73;1.50;;;26.90;63.90;;;;;;5058581;28;20436;-51